Time;durP1;ratioP1;P1;durP2;ratioP2;P2;SDS_P1;SDS_P2;PMS_P1;PMS_P2;Temp;Humidity;BMP_temperature;BMP_pressure;BME280_temperature;BME280_humidity;BME280_pressure;Samples;Min_cycle;Max_cycle;Signal;HPM_P1;HPM_P2
2024/04/06 00:01:22;;;;;;;9.63;5.30;;;;;;;;;;4411400;32;317809;-75
2024/04/06 00:03:50;;;;;;;17.17;5.85;;;;;;;;;;4408636;32;315784;-76
2024/04/06 00:06:23;;;;;;;10.82;5.37;;;;;;;;;;4379411;32;318411;-77
2024/04/06 00:08:50;;;;;;;11.77;5.68;;;;;;;;;;4395014;32;318432;-75
2024/04/06 00:11:16;;;;;;;14.75;5.75;;;;;;;;;;4385595;32;318328;-75
2024/04/06 00:13:44;;;;;;;15.55;5.90;;;;;;;;;;4394399;32;318139;-75
2024/04/06 00:16:10;;;;;;;13.13;6.87;;;;;;;;;;4378474;32;317786;-77
2024/04/06 00:18:39;;;;;;;10.50;5.70;;;;;;;;;;4395711;32;318026;-75
2024/04/06 00:21:06;;;;;;;12.93;6.07;;;;;;;;;;4385783;32;317906;-75
2024/04/06 00:23:41;;;;;;;16.73;7.93;;;;;;;;;;4393822;32;316229;-75
2024/04/06 00:26:07;;;;;;;13.82;7.65;;;;;;;;;;4379063;32;318456;-75
2024/04/06 00:28:35;;;;;;;16.65;7.25;;;;;;;;;;4394520;32;317464;-75
2024/04/06 00:31:00;;;;;;;13.52;6.70;;;;;;;;;;4384107;32;317729;-76
2024/04/06 00:33:28;;;;;;;7.47;5.22;;;;;;;;;;4394458;32;317559;-76
2024/04/06 00:35:54;;;;;;;11.40;6.30;;;;;;;;;;4379708;32;438767;-75
2024/04/06 00:38:23;;;;;;;13.75;5.55;;;;;;;;;;4388889;32;325060;-75
2024/04/06 00:40:50;;;;;;;8.35;5.15;;;;;;;;;;4387085;32;318131;-75
2024/04/06 00:43:17;;;;;;;9.05;5.18;;;;;;;;;;4385661;32;317579;-75
2024/04/06 00:45:43;;;;;;;8.43;4.85;;;;;;;;;;4395259;32;316722;-75
2024/04/06 00:48:12;;;;;;;8.85;5.87;;;;;;;;;;4390369;32;317389;-75
2024/04/06 00:50:39;;;;;;;18.00;6.25;;;;;;;;;;4392324;32;316603;-76
2024/04/06 00:53:07;;;;;;;12.13;6.25;;;;;;;;;;4384133;32;318187;-76
2024/04/06 00:55:34;;;;;;;13.15;5.93;;;;;;;;;;4395030;32;318256;-76
2024/04/06 00:58:02;;;;;;;7.95;4.95;;;;;;;;;;4383688;32;317953;-75
2024/04/06 01:00:29;;;;;;;17.95;6.80;;;;;;;;;;4391475;32;317082;-75
2024/04/06 01:02:58;;;;;;;16.05;6.82;;;;;;;;;;4383212;32;319169;-75
2024/04/06 01:05:24;;;;;;;14.67;7.13;;;;;;;;;;4394463;32;318311;-75
2024/04/06 01:07:51;;;;;;;13.18;6.37;;;;;;;;;;4394345;32;318359;-75
2024/04/06 01:10:17;;;;;;;11.57;7.20;;;;;;;;;;4376038;32;417840;-75
2024/04/06 01:12:44;;;;;;;10.60;6.37;;;;;;;;;;4395274;32;318397;-75
2024/04/06 01:15:14;;;;;;;16.20;6.80;;;;;;;;;;4385651;32;318451;-75
2024/04/06 01:17:40;;;;;;;13.20;7.00;;;;;;;;;;4394196;32;317804;-75
2024/04/06 01:20:08;;;;;;;15.30;7.33;;;;;;;;;;4377588;32;318097;-75
2024/04/06 01:22:35;;;;;;;9.93;6.07;;;;;;;;;;4393767;32;318307;-75
2024/04/06 01:25:07;;;;;;;12.80;6.33;;;;;;;;;;4383806;32;317388;-76
2024/04/06 01:27:35;;;;;;;12.23;6.47;;;;;;;;;;4393327;32;318175;-76
2024/04/06 01:30:01;;;;;;;13.33;5.93;;;;;;;;;;4384714;32;318112;-75
2024/04/06 01:32:28;;;;;;;12.57;6.33;;;;;;;;;;4389837;32;318024;-76
2024/04/06 01:34:55;;;;;;;10.53;5.70;;;;;;;;;;4376588;32;323295;-75
2024/04/06 01:37:23;;;;;;;8.15;5.72;;;;;;;;;;4394734;32;318210;-75
2024/04/06 01:39:50;;;;;;;11.90;6.43;;;;;;;;;;4384583;32;317166;-75
2024/04/06 01:42:18;;;;;;;8.60;4.87;;;;;;;;;;4387591;32;318119;-75
2024/04/06 01:44:44;;;;;;;9.85;4.87;;;;;;;;;;4366024;32;317335;-76
2024/04/06 01:47:13;;;;;;;23.67;5.73;;;;;;;;;;4378435;32;317083;-76
2024/04/06 01:49:40;;;;;;;8.83;5.77;;;;;;;;;;4369780;32;331226;-76
2024/04/06 01:52:09;;;;;;;10.97;6.70;;;;;;;;;;4379764;32;317295;-76
2024/04/06 01:54:35;;;;;;;13.63;6.87;;;;;;;;;;4382395;32;381720;-76
2024/04/06 01:57:01;;;;;;;15.50;6.77;;;;;;;;;;4388253;32;318210;-75
2024/04/06 01:59:34;;;;;;;15.37;7.80;;;;;;;;;;4393154;32;317947;-75
2024/04/06 02:02:01;;;;;;;20.40;7.90;;;;;;;;;;4380189;32;418276;-75
2024/04/06 02:04:26;;;;;;;13.57;6.90;;;;;;;;;;4388112;32;318305;-75
2024/04/06 02:06:55;;;;;;;12.23;7.47;;;;;;;;;;4363520;32;318157;-77
2024/04/06 02:09:20;;;;;;;14.67;7.60;;;;;;;;;;4379387;32;318242;-75
2024/04/06 02:11:47;;;;;;;15.07;7.33;;;;;;;;;;4369606;32;318114;-75
2024/04/06 02:14:13;;;;;;;10.70;6.23;;;;;;;;;;4390718;32;317822;-75
2024/04/06 02:16:42;;;;;;;18.43;6.47;;;;;;;;;;4402357;32;317781;-75
2024/04/06 02:19:08;;;;;;;15.97;6.63;;;;;;;;;;4409767;32;316320;-76
2024/04/06 02:21:35;;;;;;;12.27;8.13;;;;;;;;;;4401196;32;316982;-75
2024/04/06 02:24:00;;;;;;;12.23;8.80;;;;;;;;;;4411782;32;317055;-75
2024/04/06 02:26:27;;;;;;;17.37;7.93;;;;;;;;;;4411408;32;318209;-76
2024/04/06 02:28:53;;;;;;;12.67;5.47;;;;;;;;;;4389881;32;317853;-76
2024/04/06 02:31:19;;;;;;;8.10;5.00;;;;;;;;;;4397810;32;318209;-75
2024/04/06 02:33:46;;;;;;;14.57;5.13;;;;;;;;;;4385924;32;317153;-75
2024/04/06 02:36:13;;;;;;;8.97;4.63;;;;;;;;;;4395286;32;318087;-75
2024/04/06 02:38:39;;;;;;;13.90;5.57;;;;;;;;;;4384793;32;317308;-76
2024/04/06 02:41:06;;;;;;;13.53;5.93;;;;;;;;;;4386987;32;317559;-75
2024/04/06 02:43:31;;;;;;;10.07;4.97;;;;;;;;;;4384657;32;318383;-76
2024/04/06 02:45:58;;;;;;;10.13;5.93;;;;;;;;;;4393630;32;318002;-75
2024/04/06 02:48:24;;;;;;;14.37;7.20;;;;;;;;;;4392757;32;317794;-75
2024/04/06 02:50:53;;;;;;;11.17;6.53;;;;;;;;;;4376946;32;318720;-75
2024/04/06 02:53:19;;;;;;;8.27;4.13;;;;;;;;;;4392900;32;318412;-75
2024/04/06 02:55:45;;;;;;;9.07;4.30;;;;;;;;;;4383046;32;317045;-75
2024/04/06 02:58:11;;;;;;;8.43;3.93;;;;;;;;;;4392204;32;316959;-75
2024/04/06 03:00:38;;;;;;;7.07;3.70;;;;;;;;;;4380401;32;317169;-75
2024/04/06 03:03:04;;;;;;;9.87;3.80;;;;;;;;;;4385684;32;317302;-75
2024/04/06 03:05:31;;;;;;;6.63;4.50;;;;;;;;;;4389122;32;317213;-77
2024/04/06 03:08:00;;;;;;;20.03;12.40;;;;;;;;;;4392223;32;317103;-75
2024/04/06 03:10:26;;;;;;;23.20;16.13;;;;;;;;;;4392797;32;319849;-75
2024/04/06 03:12:53;;;;;;;16.83;11.33;;;;;;;;;;4375437;32;319128;-75
2024/04/06 03:15:20;;;;;;;13.57;9.20;;;;;;;;;;4391731;32;319269;-76
2024/04/06 03:17:46;;;;;;;13.33;9.77;;;;;;;;;;4382234;32;345503;-75
2024/04/06 03:20:13;;;;;;;15.13;8.13;;;;;;;;;;4393104;32;320738;-75
2024/04/06 03:22:38;;;;;;;18.03;7.50;;;;;;;;;;4376041;32;318152;-75
2024/04/06 03:25:07;;;;;;;10.77;6.40;;;;;;;;;;4370133;32;318237;-75
2024/04/06 03:27:33;;;;;;;9.90;6.13;;;;;;;;;;4370717;32;318893;-75
2024/04/06 03:29:59;;;;;;;10.40;6.57;;;;;;;;;;4380802;32;317949;-75
2024/04/06 03:32:25;;;;;;;16.00;6.80;;;;;;;;;;4379950;32;318347;-75
2024/04/06 03:34:53;;;;;;;12.13;6.20;;;;;;;;;;4361992;32;318245;-75
2024/04/06 03:37:20;;;;;;;10.70;6.13;;;;;;;;;;4380589;32;318316;-75
2024/04/06 03:39:47;;;;;;;11.73;7.67;;;;;;;;;;4370811;32;318576;-74
2024/04/06 03:42:15;;;;;;;15.37;7.70;;;;;;;;;;4380851;32;318051;-74
2024/04/06 03:44:41;;;;;;;19.90;7.83;;;;;;;;;;4368835;32;318351;-74
2024/04/06 03:47:07;;;;;;;14.87;7.73;;;;;;;;;;4374718;32;318339;-74
2024/04/06 03:49:34;;;;;;;14.83;7.40;;;;;;;;;;4369512;32;318233;-75
2024/04/06 03:52:00;;;;;;;16.30;7.20;;;;;;;;;;4380662;32;318411;-75
2024/04/06 03:54:27;;;;;;;12.60;7.27;;;;;;;;;;4378972;32;350325;-75
2024/04/06 03:56:52;;;;;;;13.07;8.00;;;;;;;;;;4364362;32;318281;-75
2024/04/06 03:59:20;;;;;;;9.63;6.60;;;;;;;;;;4380733;32;318042;-75
2024/04/06 04:01:46;;;;;;;11.70;7.20;;;;;;;;;;4369586;32;317288;-75
2024/04/06 04:04:13;;;;;;;15.83;6.80;;;;;;;;;;4379190;32;318283;-75
2024/04/06 04:06:39;;;;;;;21.50;9.27;;;;;;;;;;4370292;32;318264;-75
2024/04/06 04:09:06;;;;;;;12.70;8.10;;;;;;;;;;4373925;32;318296;-75
2024/04/06 04:11:31;;;;;;;15.93;9.57;;;;;;;;;;4370460;32;318343;-75
2024/04/06 04:13:59;;;;;;;21.63;12.07;;;;;;;;;;4380447;32;318244;-75
2024/04/06 04:16:27;;;;;;;27.37;14.77;;;;;;;;;;4378705;32;319471;-76
2024/04/06 04:18:55;;;;;;;20.53;11.93;;;;;;;;;;4359545;32;319439;-75
2024/04/06 04:21:21;;;;;;;20.87;11.57;;;;;;;;;;4364439;32;318568;-75
2024/04/06 04:23:47;;;;;;;26.60;11.23;;;;;;;;;;4368932;32;319287;-76
2024/04/06 04:26:13;;;;;;;22.63;11.73;;;;;;;;;;4378209;32;318737;-76
2024/04/06 04:28:40;;;;;;;25.77;13.03;;;;;;;;;;4371048;32;318609;-76
2024/04/06 04:31:13;;;;;;;33.10;14.60;;;;;;;;;;4374066;32;319179;-76
2024/04/06 04:33:41;;;;;;;18.00;11.10;;;;;;;;;;4370282;32;319217;-77
2024/04/06 04:36:07;;;;;;;24.10;12.77;;;;;;;;;;4377219;32;319490;-75
2024/04/06 04:38:34;;;;;;;22.43;11.63;;;;;;;;;;4368715;32;319330;-74
2024/04/06 04:41:00;;;;;;;29.63;12.73;;;;;;;;;;4373596;32;319304;-75
2024/04/06 04:43:27;;;;;;;25.93;14.10;;;;;;;;;;4378719;32;319301;-74
2024/04/06 04:45:52;;;;;;;23.87;14.53;;;;;;;;;;4369580;32;319180;-75
2024/04/06 04:48:19;;;;;;;22.40;10.43;;;;;;;;;;4379890;32;319311;-75
2024/04/06 04:50:46;;;;;;;20.53;12.40;;;;;;;;;;4362978;32;319238;-74
2024/04/06 04:53:14;;;;;;;26.13;11.60;;;;;;;;;;4377917;32;319274;-75
2024/04/06 04:55:40;;;;;;;20.30;12.97;;;;;;;;;;4368108;32;342304;-75
2024/04/06 04:58:08;;;;;;;25.23;12.27;;;;;;;;;;4378284;32;319698;-75
2024/04/06 05:00:34;;;;;;;17.97;11.13;;;;;;;;;;4368217;32;319374;-75
2024/04/06 05:03:01;;;;;;;18.07;10.27;;;;;;;;;;4370749;32;339110;-76
2024/04/06 05:05:26;;;;;;;26.07;13.13;;;;;;;;;;4379684;32;318469;-76
2024/04/06 05:08:00;;;;;;;23.50;12.67;;;;;;;;;;4369432;32;319414;-75
2024/04/06 05:10:25;;;;;;;26.30;12.97;;;;;;;;;;4378892;32;319442;-74
2024/04/06 05:12:54;;;;;;;28.17;14.80;;;;;;;;;;4363444;32;318949;-75
2024/04/06 05:15:20;;;;;;;22.27;12.20;;;;;;;;;;4374421;32;319570;-76
2024/04/06 05:17:47;;;;;;;14.50;9.67;;;;;;;;;;4368020;32;319329;-75
2024/04/06 05:20:13;;;;;;;22.40;9.90;;;;;;;;;;4379799;32;318181;-75
2024/04/06 05:22:39;;;;;;;21.30;8.47;;;;;;;;;;4369280;32;318500;-75
2024/04/06 05:25:06;;;;;;;19.17;10.43;;;;;;;;;;4370707;32;317721;-75
2024/04/06 05:27:33;;;;;;;15.90;8.53;;;;;;;;;;4366096;32;318477;-75
2024/04/06 05:29:59;;;;;;;15.47;8.77;;;;;;;;;;4379550;32;318526;-75
2024/04/06 05:32:25;;;;;;;14.13;9.60;;;;;;;;;;4377420;32;318414;-75
2024/04/06 05:34:52;;;;;;;11.83;7.27;;;;;;;;;;4360988;32;319129;-76
2024/04/06 05:37:18;;;;;;;13.60;7.67;;;;;;;;;;4378837;32;317456;-74
2024/04/06 05:39:44;;;;;;;21.23;7.47;;;;;;;;;;4367748;32;317686;-75
2024/04/06 05:42:12;;;;;;;15.70;7.47;;;;;;;;;;4376390;32;318031;-74
2024/04/06 05:44:38;;;;;;;14.93;6.80;;;;;;;;;;4368975;32;318171;-75
2024/04/06 05:47:05;;;;;;;14.03;7.33;;;;;;;;;;4371454;32;318390;-74
2024/04/06 05:49:31;;;;;;;18.03;7.57;;;;;;;;;;4368589;32;318183;-76
2024/04/06 05:51:58;;;;;;;11.73;7.13;;;;;;;;;;4378436;32;318191;-77
2024/04/06 05:54:24;;;;;;;15.80;7.73;;;;;;;;;;4380134;32;318184;-75
2024/04/06 05:56:51;;;;;;;12.60;7.17;;;;;;;;;;4364976;32;318490;-76
2024/04/06 05:59:18;;;;;;;13.43;8.33;;;;;;;;;;4377942;32;318242;-75
2024/04/06 06:01:45;;;;;;;15.50;8.37;;;;;;;;;;4369507;32;318124;-75
2024/04/06 06:04:10;;;;;;;14.60;7.13;;;;;;;;;;4379132;32;318184;-75
2024/04/06 06:06:37;;;;;;;18.60;8.80;;;;;;;;;;4368880;32;318316;-76
2024/04/06 06:09:04;;;;;;;13.63;7.47;;;;;;;;;;4374231;32;318216;-75
2024/04/06 06:11:32;;;;;;;18.57;7.20;;;;;;;;;;4376907;32;318370;-77
2024/04/06 06:13:57;;;;;;;18.70;9.00;;;;;;;;;;4364283;32;417587;-76
2024/04/06 06:16:26;;;;;;;23.57;9.57;;;;;;;;;;4376466;32;318300;-76
2024/04/06 06:18:51;;;;;;;26.60;12.73;;;;;;;;;;4360766;32;318832;-74
2024/04/06 06:21:18;;;;;;;29.07;10.70;;;;;;;;;;4377202;32;319132;-76
2024/04/06 06:23:44;;;;;;;19.17;8.97;;;;;;;;;;4367256;32;319342;-75
2024/04/06 06:26:10;;;;;;;17.27;7.33;;;;;;;;;;4377651;32;317454;-76
2024/04/06 06:28:36;;;;;;;13.07;5.87;;;;;;;;;;4366056;32;318392;-75
2024/04/06 06:31:04;;;;;;;13.60;5.37;;;;;;;;;;4369316;32;345301;-76
2024/04/06 06:33:31;;;;;;;9.27;5.13;;;;;;;;;;4376582;32;318332;-75
2024/04/06 06:35:57;;;;;;;14.93;5.37;;;;;;;;;;4365502;32;416739;-75
2024/04/06 06:38:23;;;;;;;7.70;4.70;;;;;;;;;;4374118;32;318372;-75
2024/04/06 06:40:50;;;;;;;5.97;3.87;;;;;;;;;;4359288;32;317069;-77
2024/04/06 06:43:16;;;;;;;7.47;4.23;;;;;;;;;;4377741;32;317314;-75
2024/04/06 06:45:43;;;;;;;7.40;4.90;;;;;;;;;;4368108;32;317739;-75
2024/04/06 06:48:08;;;;;;;9.90;4.47;;;;;;;;;;4376530;32;317295;-75
2024/04/06 06:50:37;;;;;;;7.13;4.63;;;;;;;;;;4366879;32;317116;-76
2024/04/06 06:53:03;;;;;;;6.62;5.15;;;;;;;;;;4368744;32;317013;-76
2024/04/06 06:55:32;;;;;;;5.73;3.60;;;;;;;;;;4375895;32;316331;-77
2024/04/06 06:57:57;;;;;;;7.27;3.60;;;;;;;;;;4363028;32;417906;-76
2024/04/06 07:00:24;;;;;;;10.48;3.70;;;;;;;;;;4376242;32;317119;-77
2024/04/06 07:02:50;;;;;;;6.77;3.63;;;;;;;;;;4360475;32;318372;-75
2024/04/06 07:05:16;;;;;;;4.82;2.92;;;;;;;;;;4377557;32;317780;-75
2024/04/06 07:07:50;;;;;;;9.90;5.20;;;;;;;;;;4357938;32;317356;-75
2024/04/06 07:10:18;;;;;;;13.00;4.03;;;;;;;;;;4361114;32;317042;-75
2024/04/06 07:12:43;;;;;;;9.45;4.10;;;;;;;;;;4345950;32;318244;-75
2024/04/06 07:15:10;;;;;;;9.13;3.25;;;;;;;;;;4360417;32;316690;-77
2024/04/06 07:17:36;;;;;;;9.20;3.97;;;;;;;;;;4337305;32;350344;-77
2024/04/06 07:20:04;;;;;;;10.05;4.20;;;;;;;;;;4356553;32;316760;-79
2024/04/06 07:22:29;;;;;;;6.80;3.80;;;;;;;;;;4361699;32;317872;-77
2024/04/06 07:24:57;;;;;;;13.90;3.10;;;;;;;;;;4343403;32;374083;-79
2024/04/06 07:27:23;;;;;;;4.60;3.22;;;;;;;;;;4359278;32;317652;-78
2024/04/06 07:29:50;;;;;;;20.95;3.95;;;;;;;;;;4351105;32;316603;-78
2024/04/06 07:32:15;;;;;;;10.90;3.33;;;;;;;;;;4363380;32;318041;-75
2024/04/06 07:34:42;;;;;;;8.48;2.78;;;;;;;;;;4347453;32;318319;-76
2024/04/06 07:37:08;;;;;;;9.77;3.80;;;;;;;;;;4356864;32;346263;-76
2024/04/06 07:39:35;;;;;;;10.30;3.25;;;;;;;;;;4348224;32;317479;-76
2024/04/06 07:42:02;;;;;;;6.90;3.08;;;;;;;;;;4360572;32;317427;-76
2024/04/06 07:44:29;;;;;;;4.78;2.72;;;;;;;;;;4360192;32;317317;-77
2024/04/06 07:46:54;;;;;;;7.37;2.15;;;;;;;;;;4344367;32;317246;-75
2024/04/06 07:49:21;;;;;;;6.20;2.50;;;;;;;;;;4359351;32;316484;-75
2024/04/06 07:51:47;;;;;;;8.00;2.80;;;;;;;;;;4352562;32;317144;-75
2024/04/06 07:54:13;;;;;;;5.93;2.65;;;;;;;;;;4362097;32;317473;-75
2024/04/06 07:56:39;;;;;;;11.63;2.40;;;;;;;;;;4351797;32;324029;-75
2024/04/06 07:59:07;;;;;;;6.47;2.72;;;;;;;;;;4353677;32;354318;-75
2024/04/06 08:01:33;;;;;;;3.65;2.15;;;;;;;;;;4348920;32;343904;-77
2024/04/06 08:04:02;;;;;;;7.10;2.35;;;;;;;;;;4353048;32;317142;-78
2024/04/06 08:06:28;;;;;;;2.85;2.10;;;;;;;;;;4348468;32;317563;-76
2024/04/06 08:08:55;;;;;;;4.72;2.00;;;;;;;;;;4344471;32;352696;-76
2024/04/06 08:11:20;;;;;;;6.78;2.03;;;;;;;;;;4364067;32;317371;-76
2024/04/06 08:13:47;;;;;;;7.97;1.50;;;;;;;;;;4354280;32;317130;-76
2024/04/06 08:16:14;;;;;;;5.57;1.70;;;;;;;;;;4359271;32;317042;-74
2024/04/06 08:18:41;;;;;;;4.10;2.30;;;;;;;;;;4355199;32;317499;-74
2024/04/06 08:21:07;;;;;;;5.00;1.75;;;;;;;;;;4346306;32;316980;-74
2024/04/06 08:23:33;;;;;;;7.18;1.52;;;;;;;;;;4354502;32;317096;-74
2024/04/06 08:25:59;;;;;;;4.85;1.67;;;;;;;;;;4361120;32;317212;-74
2024/04/06 08:28:26;;;;;;;4.57;2.20;;;;;;;;;;4364189;32;335080;-73
2024/04/06 08:30:51;;;;;;;2.53;1.62;;;;;;;;;;4347707;32;317275;-75
2024/04/06 08:33:19;;;;;;;7.90;2.45;;;;;;;;;;4363068;32;317028;-73
2024/04/06 08:35:45;;;;;;;4.75;1.75;;;;;;;;;;4354197;32;317445;-73
2024/04/06 08:38:12;;;;;;;4.18;2.15;;;;;;;;;;4349178;32;343628;-73
2024/04/06 08:40:41;;;;;;;3.53;2.10;;;;;;;;;;4354962;32;317129;-73
2024/04/06 08:43:12;;;;;;;4.45;1.98;;;;;;;;;;4359666;32;317334;-74
2024/04/06 08:45:39;;;;;;;7.20;2.30;;;;;;;;;;4354898;32;317201;-74
2024/04/06 08:48:08;;;;;;;3.80;2.12;;;;;;;;;;4364107;32;317231;-74
2024/04/06 08:50:36;;;;;;;6.62;2.30;;;;;;;;;;4356935;32;317019;-74
2024/04/06 08:53:05;;;;;;;4.50;2.33;;;;;;;;;;4370764;32;317163;-75
2024/04/06 08:55:31;;;;;;;5.37;1.98;;;;;;;;;;4354828;32;318443;-74
2024/04/06 08:57:59;;;;;;;5.15;1.85;;;;;;;;;;4363138;32;316472;-74
2024/04/06 09:00:27;;;;;;;9.07;2.35;;;;;;;;;;4359086;32;317444;-74
2024/04/06 09:02:53;;;;;;;7.95;2.28;;;;;;;;;;4345998;32;317445;-74
2024/04/06 09:05:22;;;;;;;8.57;2.15;;;;;;;;;;4363915;32;317353;-74
2024/04/06 09:07:52;;;;;;;3.70;2.00;;;;;;;;;;4352521;32;317297;-74
2024/04/06 09:10:23;;;;;;;11.15;2.00;;;;;;;;;;4369138;32;317361;-74
2024/04/06 09:12:50;;;;;;;10.23;2.22;;;;;;;;;;4360784;32;318679;-74
2024/04/06 09:15:17;;;;;;;6.25;2.08;;;;;;;;;;4373164;32;318153;-74
2024/04/06 09:17:44;;;;;;;3.47;2.08;;;;;;;;;;4354168;32;317121;-74
2024/04/06 09:20:11;;;;;;;6.03;2.70;;;;;;;;;;4363849;32;317152;-73
2024/04/06 09:22:41;;;;;;;5.00;2.17;;;;;;;;;;4354319;32;317023;-74
2024/04/06 09:25:08;;;;;;;3.25;1.90;;;;;;;;;;4372570;32;316954;-74
2024/04/06 09:27:35;;;;;;;7.78;1.95;;;;;;;;;;4369576;32;317275;-74
2024/04/06 09:30:01;;;;;;;5.95;2.12;;;;;;;;;;4376982;32;316532;-75
2024/04/06 09:32:30;;;;;;;19.92;2.78;;;;;;;;;;4377934;32;317179;-73
2024/04/06 09:34:56;;;;;;;5.10;2.28;;;;;;;;;;4359919;32;419048;-75
2024/04/06 09:37:29;;;;;;;3.47;2.28;;;;;;;;;;4379223;32;317150;-74
2024/04/06 09:39:56;;;;;;;4.50;2.05;;;;;;;;;;4361072;32;317312;-74
2024/04/06 09:42:25;;;;;;;4.07;2.65;;;;;;;;;;4368287;32;317243;-75
2024/04/06 09:44:53;;;;;;;4.70;2.22;;;;;;;;;;4345989;32;353440;-75
2024/04/06 09:47:22;;;;;;;5.75;1.98;;;;;;;;;;4363835;32;317237;-75
2024/04/06 09:49:48;;;;;;;5.18;2.35;;;;;;;;;;4353287;32;317091;-75
2024/04/06 09:52:15;;;;;;;5.82;1.92;;;;;;;;;;4362336;32;316364;-76
2024/04/06 09:54:41;;;;;;;5.90;2.10;;;;;;;;;;4352013;32;330636;-74
2024/04/06 09:57:08;;;;;;;3.90;1.83;;;;;;;;;;4357824;32;317122;-74
2024/04/06 09:59:36;;;;;;;8.98;1.87;;;;;;;;;;4353350;32;317406;-77
2024/04/06 10:02:02;;;;;;;2.22;1.52;;;;;;;;;;4368077;32;317076;-76
2024/04/06 10:04:34;;;;;;;4.85;1.60;;;;;;;;;;4363215;32;317353;-76
2024/04/06 10:07:02;;;;;;;3.70;1.90;;;;;;;;;;4343302;32;417760;-76
2024/04/06 10:09:29;;;;;;;6.55;2.37;;;;;;;;;;4363611;32;317153;-76
2024/04/06 10:11:59;;;;;;;3.75;1.62;;;;;;;;;;4352915;32;318076;-76
2024/04/06 10:14:26;;;;;;;3.65;1.87;;;;;;;;;;4362326;32;317486;-76
2024/04/06 10:17:07;;;;;;;8.73;1.98;;;;;;;;;;4333069;32;317470;-77
2024/04/06 10:19:33;;;;;;;3.75;1.50;;;;;;;;;;4347597;32;374636;-76
2024/04/06 10:22:04;;;;;;;7.65;1.65;;;;;;;;;;4361157;32;317175;-78
2024/04/06 10:25:02;;;;;;;2.92;1.30;;;;;;;;;;4353904;32;317430;-76
2024/04/06 10:27:29;;;;;;;2.78;1.50;;;;;;;;;;4345063;32;414768;-76
2024/04/06 10:29:55;;;;;;;2.05;1.55;;;;;;;;;;4341930;32;317094;-76
2024/04/06 10:32:24;;;;;;;1.92;1.08;;;;;;;;;;4362160;32;317738;-76
2024/04/06 10:34:58;;;;;;;1.10;1.00;;;;;;;;;;4346487;32;317186;-75
2024/04/06 10:37:25;;;;;;;1.62;1.00;;;;;;;;;;4362085;32;317140;-75
2024/04/06 10:39:51;;;;;;;5.25;1.20;;;;;;;;;;4352060;32;317292;-75
2024/04/06 10:42:17;;;;;;;2.28;1.10;;;;;;;;;;4361890;32;316704;-76
2024/04/06 10:44:43;;;;;;;5.00;1.50;;;;;;;;;;4350587;32;317423;-76
2024/04/06 10:47:10;;;;;;;3.00;1.20;;;;;;;;;;4361220;32;317334;-75
2024/04/06 10:49:37;;;;;;;13.57;1.45;;;;;;;;;;4351475;32;317425;-76
2024/04/06 10:52:06;;;;;;;1.75;1.27;;;;;;;;;;4358952;32;318224;-77
2024/04/06 10:54:33;;;;;;;2.95;1.27;;;;;;;;;;4339320;32;316994;-75
2024/04/06 10:57:00;;;;;;;4.43;0.88;;;;;;;;;;4352099;32;317394;-77
2024/04/06 10:59:27;;;;;;;2.45;1.27;;;;;;;;;;4361231;32;317340;-75
2024/04/06 11:01:54;;;;;;;6.45;1.30;;;;;;;;;;4353455;32;317166;-75
2024/04/06 11:04:21;;;;;;;5.57;1.12;;;;;;;;;;4361897;32;317111;-76
2024/04/06 11:06:49;;;;;;;7.45;1.33;;;;;;;;;;4346462;32;317758;-78
2024/04/06 11:09:15;;;;;;;4.32;1.33;;;;;;;;;;4360979;32;317626;-76
2024/04/06 11:11:41;;;;;;;3.25;1.25;;;;;;;;;;4350884;32;317380;-76
2024/04/06 11:14:10;;;;;;;5.18;1.30;;;;;;;;;;4361466;32;317410;-76
2024/04/06 11:16:37;;;;;;;3.78;1.65;;;;;;;;;;4351674;32;317313;-75
2024/04/06 11:19:04;;;;;;;8.15;1.52;;;;;;;;;;4353407;32;317254;-75
2024/04/06 11:21:30;;;;;;;2.78;1.25;;;;;;;;;;4362207;32;317476;-77
2024/04/06 11:23:58;;;;;;;6.30;1.37;;;;;;;;;;4334730;32;372191;-75
2024/04/06 11:26:24;;;;;;;4.35;1.15;;;;;;;;;;4347433;32;317477;-75
2024/04/06 11:28:51;;;;;;;7.30;1.60;;;;;;;;;;4330903;32;317515;-77
2024/04/06 11:31:21;;;;;;;4.57;1.37;;;;;;;;;;4347343;32;317357;-76
2024/04/06 11:33:48;;;;;;;3.62;1.30;;;;;;;;;;4336778;32;317221;-76
2024/04/06 11:36:14;;;;;;;2.37;1.20;;;;;;;;;;4346552;32;317458;-76
2024/04/06 11:38:40;;;;;;;2.42;1.45;;;;;;;;;;4337237;32;317319;-76
2024/04/06 11:41:08;;;;;;;2.45;1.23;;;;;;;;;;4341496;32;316666;-76
2024/04/06 11:43:34;;;;;;;2.65;1.52;;;;;;;;;;4336792;32;317387;-76
2024/04/06 11:46:00;;;;;;;3.28;1.40;;;;;;;;;;4373145;32;317391;-76
2024/04/06 11:48:27;;;;;;;5.12;1.23;;;;;;;;;;4350823;32;317499;-76
2024/04/06 11:50:53;;;;;;;3.03;1.37;;;;;;;;;;4334316;32;317525;-76
2024/04/06 11:53:20;;;;;;;5.25;1.25;;;;;;;;;;4362692;32;317350;-76
2024/04/06 11:55:46;;;;;;;2.53;1.50;;;;;;;;;;4356207;32;317308;-77
2024/04/06 11:58:15;;;;;;;3.37;1.20;;;;;;;;;;4365513;32;317226;-75
2024/04/06 12:00:41;;;;;;;2.30;1.27;;;;;;;;;;4355603;32;317250;-77
2024/04/06 12:03:09;;;;;;;6.05;1.33;;;;;;;;;;4361360;32;317388;-76
2024/04/06 12:05:34;;;;;;;3.50;1.12;;;;;;;;;;4354760;32;317982;-76
2024/04/06 12:08:02;;;;;;;3.60;1.20;;;;;;;;;;4364538;32;317448;-76
2024/04/06 12:10:31;;;;;;;4.62;1.42;;;;;;;;;;4363267;32;317352;-75
2024/04/06 12:12:57;;;;;;;2.20;1.20;;;;;;;;;;4330507;32;416620;-77
2024/04/06 12:15:25;;;;;;;5.60;1.20;;;;;;;;;;4350834;32;317383;-76
2024/04/06 12:17:51;;;;;;;4.60;1.10;;;;;;;;;;4340672;32;317167;-75
2024/04/06 12:20:18;;;;;;;2.78;1.20;;;;;;;;;;4350663;32;317338;-75
2024/04/06 12:22:44;;;;;;;2.65;1.15;;;;;;;;;;4340697;32;317616;-75
2024/04/06 12:25:10;;;;;;;3.28;1.42;;;;;;;;;;4364275;32;317246;-76
2024/04/06 12:27:36;;;;;;;1.90;1.23;;;;;;;;;;4356101;32;317372;-76
2024/04/06 12:30:04;;;;;;;3.20;1.40;;;;;;;;;;4365242;32;317535;-76
2024/04/06 12:32:31;;;;;;;5.05;1.00;;;;;;;;;;4367733;32;317557;-76
2024/04/06 12:34:58;;;;;;;6.60;1.37;;;;;;;;;;4351930;32;416758;-76
2024/04/06 12:37:24;;;;;;;2.87;1.20;;;;;;;;;;4376048;32;317029;-76
2024/04/06 12:39:51;;;;;;;2.97;1.35;;;;;;;;;;4360334;32;317675;-76
2024/04/06 12:42:17;;;;;;;2.12;1.20;;;;;;;;;;4380717;32;315239;-76
2024/04/06 12:44:43;;;;;;;2.47;1.50;;;;;;;;;;4369483;32;317373;-76
2024/04/06 12:47:09;;;;;;;5.47;1.17;;;;;;;;;;4381935;32;315901;-77
2024/04/06 12:49:37;;;;;;;3.35;1.45;;;;;;;;;;4362745;32;317389;-76
2024/04/06 12:52:04;;;;;;;5.87;1.80;;;;;;;;;;4364036;32;316834;-76
2024/04/06 12:54:32;;;;;;;2.20;1.17;;;;;;;;;;4365398;32;317048;-75
2024/04/06 12:59:43;;;;;;;2.75;1.52;;;;;;;;;;4351036;32;317206;-77
2024/04/06 13:02:13;;;;;;;1.75;1.25;;;;;;;;;;4370081;32;317428;-74
2024/04/06 13:04:41;;;;;;;1.52;1.17;;;;;;;;;;4354913;32;317579;-76
2024/04/06 13:07:08;;;;;;;2.75;1.62;;;;;;;;;;4359074;32;349665;-74
2024/04/06 13:09:35;;;;;;;6.30;1.80;;;;;;;;;;4351884;32;317344;-74
2024/04/06 13:12:02;;;;;;;6.45;1.52;;;;;;;;;;4363349;32;317496;-74
2024/04/06 13:14:28;;;;;;;3.28;1.00;;;;;;;;;;4362846;32;316794;-74
2024/04/06 13:16:55;;;;;;;2.37;1.02;;;;;;;;;;4347529;32;317307;-75
2024/04/06 13:19:21;;;;;;;2.15;1.25;;;;;;;;;;4364188;32;318992;-75
2024/04/06 13:21:49;;;;;;;4.43;1.75;;;;;;;;;;4353199;32;317340;-74
2024/04/06 13:24:15;;;;;;;2.40;1.50;;;;;;;;;;4363885;32;317386;-74
2024/04/06 13:26:44;;;;;;;4.10;1.58;;;;;;;;;;4354573;32;317314;-74
2024/04/06 13:29:09;;;;;;;2.00;1.30;;;;;;;;;;4351872;32;317441;-74
2024/04/06 13:31:36;;;;;;;2.05;1.23;;;;;;;;;;4336809;32;354199;-75
2024/04/06 13:34:05;;;;;;;5.43;1.40;;;;;;;;;;4358760;32;317420;-74
2024/04/06 13:36:32;;;;;;;1.85;1.10;;;;;;;;;;4354372;32;317539;-75
2024/04/06 13:38:59;;;;;;;5.62;1.45;;;;;;;;;;4357327;32;317274;-75
2024/04/06 13:41:26;;;;;;;2.65;1.35;;;;;;;;;;4362654;32;317291;-75
2024/04/06 13:43:52;;;;;;;2.45;1.15;;;;;;;;;;4352748;32;317260;-75
2024/04/06 13:46:18;;;;;;;3.47;1.40;;;;;;;;;;4363027;32;316700;-75
2024/04/06 13:48:44;;;;;;;4.12;1.40;;;;;;;;;;4347173;32;316747;-74
2024/04/06 13:51:11;;;;;;;1.60;1.02;;;;;;;;;;4363010;32;316908;-74
2024/04/06 13:53:37;;;;;;;2.30;1.23;;;;;;;;;;4352564;32;317348;-76
2024/04/06 13:56:05;;;;;;;1.87;1.20;;;;;;;;;;4362894;32;317060;-76
2024/04/06 13:58:31;;;;;;;3.10;1.40;;;;;;;;;;4355062;32;316538;-76
2024/04/06 14:00:58;;;;;;;4.03;1.20;;;;;;;;;;4367662;32;316891;-76
2024/04/06 14:03:24;;;;;;;4.07;1.67;;;;;;;;;;4362083;32;316884;-75
2024/04/06 14:05:51;;;;;;;4.12;1.65;;;;;;;;;;4350320;32;316761;-75
2024/04/06 14:08:18;;;;;;;6.35;1.50;;;;;;;;;;4355997;32;316984;-76
2024/04/06 14:10:44;;;;;;;4.80;1.40;;;;;;;;;;4347048;32;317542;-76
2024/04/06 14:13:11;;;;;;;1.83;1.40;;;;;;;;;;4362750;32;316712;-76
2024/04/06 14:15:38;;;;;;;7.78;1.95;;;;;;;;;;4349701;32;317362;-75
2024/04/06 14:18:04;;;;;;;7.68;1.23;;;;;;;;;;4347649;32;316533;-75
2024/04/06 14:20:31;;;;;;;9.77;1.30;;;;;;;;;;4362893;32;317575;-75
2024/04/06 14:22:57;;;;;;;4.90;1.83;;;;;;;;;;4340471;32;417855;-75
2024/04/06 14:25:23;;;;;;;6.68;1.62;;;;;;;;;;4361322;32;317411;-75